Salvamar Tenerife — EA9542 — position and weather

sailwx.info

Track history (hours):
 
Tides and Currents Weather Stations Pressure Air Temp Water Temp Dewpoint Dewpoint Depression Visibility Wind Speed Wind Dir Waves Ship Positions

Salvamar Tenerife

Last reported at 2017-Dec-15 13:11 UTC. Time now 2017-Dec-16 11:30 UTC.
Position N 28°28' W 016°15'.

Length 20 m; draft 1 m.

Type: SAR. MMSI: 224023000.

Date/timePositionNaut miles runAvg speedWind from/ knotsBaromVisibWave heightAir tempDewpointWater temp
2017-Dec-15 13:11N 28°28' W 016°15'0 0.0
2017-Dec-15 13:00N 28°28' W 016°15'0 0.0
2017-Dec-15 12:30N 28°28' W 016°15'0 0.0
2017-Dec-15 12:00N 28°28' W 016°15'0 0.0
2017-Dec-15 11:30N 28°28' W 016°15'0 0.0
2017-Dec-15 11:00N 28°28' W 016°15'0 0.0
2017-Dec-15 10:30N 28°28' W 016°15'0 0.0
2017-Dec-15 10:00N 28°28' W 016°15'0 0.0
2017-Dec-15 09:30N 28°28' W 016°15'0 0.0
2017-Dec-15 09:00N 28°28' W 016°15'0 0.0
2017-Dec-14 17:56N 28°28' W 016°15'0 0.0
2017-Dec-14 17:30N 28°28' W 016°15'0 0.0
2017-Dec-14 17:00N 28°28' W 016°15'0 0.0
2017-Dec-14 16:30N 28°28' W 016°15'0 0.0
2017-Dec-14 16:00N 28°28' W 016°15'0 0.0
2017-Dec-14 13:05N 28°28' W 016°15'0 0.0
2017-Dec-14 13:00N 28°28' W 016°15'0 0.0
2017-Dec-14 12:30N 28°28' W 016°15'0 0.0
2017-Dec-14 12:00N 28°28' W 016°15'0 0.0
2017-Dec-14 11:30N 28°28' W 016°15'0 0.0
2017-Dec-14 11:00N 28°28' W 016°15'0 0.0
2017-Dec-14 10:30N 28°28' W 016°15'0 0.0
2017-Dec-14 10:00N 28°28' W 016°15'0 0.0
2017-Dec-14 09:30N 28°28' W 016°15'0 0.0
2017-Dec-14 09:00N 28°28' W 016°15'0 0.0
2017-Dec-13 16:29N 28°28' W 016°15'0 0.0
2017-Dec-13 13:28N 28°28' W 016°15'0 0.0
2017-Dec-13 13:01N 28°28' W 016°15'0 0.0
2017-Dec-13 12:30N 28°28' W 016°15'0 0.0
2017-Dec-13 12:00N 28°28' W 016°15'0 0.0
2017-Dec-13 11:31N 28°28' W 016°15'0 0.0
2017-Dec-13 11:00N 28°28' W 016°15'0 0.0
2017-Dec-13 10:30N 28°28' W 016°15'0 0.0
2017-Dec-13 10:00N 28°28' W 016°15'0 0.0
2017-Dec-13 09:30N 28°28' W 016°15'0 0.0
2017-Dec-13 09:00N 28°28' W 016°15'0 0.0
2017-Dec-13 08:31N 28°28' W 016°15'0 0.0
2017-Dec-12 17:58N 28°28' W 016°15'0 0.0
2017-Dec-12 17:30N 28°28' W 016°15'0 0.0
2017-Dec-12 17:00N 28°28' W 016°15'0 0.0
2017-Dec-12 16:30N 28°28' W 016°15'0 0.0
2017-Dec-12 16:00N 28°28' W 016°15'0 0.0
2017-Dec-12 13:34N 28°28' W 016°15'0 0.0
2017-Dec-12 13:30N 28°28' W 016°15'0 0.0
2017-Dec-12 13:00N 28°28' W 016°15'0 0.0
2017-Dec-12 12:30N 28°28' W 016°15'0 0.0
2017-Dec-12 12:00N 28°28' W 016°15'0 0.0
2017-Dec-12 11:30N 28°28' W 016°15'0 0.0
2017-Dec-12 11:00N 28°28' W 016°15'0 0.0
2017-Dec-12 10:30N 28°28' W 016°15'0 0.0
2017-Dec-12 10:00N 28°28' W 016°15'0 0.0
2017-Dec-12 09:30N 28°28' W 016°15'0 0.0
2017-Dec-12 09:00N 28°28' W 016°15'0 0.0
2017-Dec-12 08:30N 28°28' W 016°15'0 0.0
2017-Dec-11 20:32N 28°28' W 016°15'0 0.0
2017-Dec-11 20:30N 28°28' W 016°15'511.0
2017-Dec-11 20:00N 28°23' W 016°13'1 1.8
2017-Dec-11 19:30N 28°22' W 016°13'0 0.9
2017-Dec-11 19:01N 28°22' W 016°14'4 7.3
2017-Dec-11 18:30N 28°26' W 016°14'2 4.4
2017-Dec-11 18:00N 28°28' W 016°15'4 7.1
2017-Dec-11 17:30N 28°24' W 016°14'4 7.1
2017-Dec-11 17:00N 28°28' W 016°15'0 0.0
2017-Dec-11 16:30N 28°28' W 016°15'0 0.0
2017-Dec-11 16:00N 28°28' W 016°15'0 0.0
2017-Dec-11 15:30N 28°28' W 016°15'0 0.0
2017-Dec-11 12:46N 28°28' W 016°15'0 0.0
2017-Dec-11 12:30N 28°28' W 016°15'0 0.0
2017-Dec-11 12:00N 28°28' W 016°15'0 0.0
2017-Dec-11 11:31N 28°28' W 016°15'0 0.0
2017-Dec-11 11:01N 28°28' W 016°15'0 0.0
2017-Dec-11 10:31N 28°28' W 016°15'0 0.0
2017-Dec-11 10:01N 28°28' W 016°15'0 0.0
2017-Dec-11 09:31N 28°28' W 016°15'0 0.0
2017-Dec-11 09:01N 28°28' W 016°15'0 0.0
2017-Dec-11 08:31N 28°28' W 016°15'0 0.0
2017-Dec-11 08:01N 28°28' W 016°15'0 0.0
2017-Dec-10 13:07N 28°28' W 016°15'0 0.0
2017-Dec-10 13:00N 28°28' W 016°15'0 0.0
2017-Dec-10 12:31N 28°28' W 016°15'0 0.0
2017-Dec-09 13:46N 28°28' W 016°15'0 0.0
2017-Dec-09 13:31N 28°28' W 016°15'0 0.0
2017-Dec-09 13:01N 28°28' W 016°15'0 0.0
2017-Dec-09 12:31N 28°28' W 016°15'0 0.0
2017-Dec-09 12:01N 28°28' W 016°15'0 0.0
2017-Dec-08 13:29N 28°28' W 016°15'0 0.0
2017-Dec-08 13:00N 28°28' W 016°15'0 0.0
2017-Dec-08 12:30N 28°28' W 016°15'0 0.0
2017-Dec-08 12:00N 28°28' W 016°15'0 0.0
2017-Dec-07 17:34N 28°28' W 016°15'0 0.0
2017-Dec-07 17:31N 28°28' W 016°15'0 0.0
2017-Dec-07 17:01N 28°28' W 016°15'0 0.0
2017-Dec-07 16:31N 28°28' W 016°15'0 0.0
2017-Dec-07 16:00N 28°28' W 016°15'0 0.0
2017-Dec-07 15:31N 28°28' W 016°15'  
Track history (hours):
 
Tides and Currents Weather Stations Pressure Air Temp Water Temp Dewpoint Dewpoint Depression Visibility Wind Speed Wind Dir Waves Ship Positions

Salvamar Tenerife

Last reported at 2017-Dec-15 13:11 UTC. Time now 2017-Dec-16 11:30 UTC.
Position N 28°28' W 016°15'.

Length 20 m; draft 1 m.

Type: SAR. MMSI: 224023000.

Date/timePositionNaut miles runAvg speedWind from/ knotsBaromVisibWave heightAir tempDewpointWater temp
2017-Dec-15 13:11N 28°28' W 016°15'0 0.0
2017-Dec-15 13:00N 28°28' W 016°15'0 0.0
2017-Dec-15 12:30N 28°28' W 016°15'0 0.0
2017-Dec-15 12:00N 28°28' W 016°15'0 0.0
2017-Dec-15 11:30N 28°28' W 016°15'0 0.0
2017-Dec-15 11:00N 28°28' W 016°15'0 0.0
2017-Dec-15 10:30N 28°28' W 016°15'0 0.0
2017-Dec-15 10:00N 28°28' W 016°15'0 0.0
2017-Dec-15 09:30N 28°28' W 016°15'0 0.0
2017-Dec-15 09:00N 28°28' W 016°15'0 0.0
2017-Dec-14 17:56N 28°28' W 016°15'0 0.0
2017-Dec-14 17:30N 28°28' W 016°15'0 0.0
2017-Dec-14 17:00N 28°28' W 016°15'0 0.0
2017-Dec-14 16:30N 28°28' W 016°15'0 0.0
2017-Dec-14 16:00N 28°28' W 016°15'0 0.0
2017-Dec-14 13:05N 28°28' W 016°15'0 0.0
2017-Dec-14 13:00N 28°28' W 016°15'0 0.0
2017-Dec-14 12:30N 28°28' W 016°15'0 0.0
2017-Dec-14 12:00N 28°28' W 016°15'0 0.0
2017-Dec-14 11:30N 28°28' W 016°15'0 0.0
2017-Dec-14 11:00N 28°28' W 016°15'0 0.0
2017-Dec-14 10:30N 28°28' W 016°15'0 0.0
2017-Dec-14 10:00N 28°28' W 016°15'0 0.0
2017-Dec-14 09:30N 28°28' W 016°15'0 0.0
2017-Dec-14 09:00N 28°28' W 016°15'0 0.0
2017-Dec-13 16:29N 28°28' W 016°15'0 0.0
2017-Dec-13 13:28N 28°28' W 016°15'0 0.0
2017-Dec-13 13:01N 28°28' W 016°15'0 0.0
2017-Dec-13 12:30N 28°28' W 016°15'0 0.0
2017-Dec-13 12:00N 28°28' W 016°15'0 0.0
2017-Dec-13 11:31N 28°28' W 016°15'0 0.0
2017-Dec-13 11:00N 28°28' W 016°15'0 0.0
2017-Dec-13 10:30N 28°28' W 016°15'0 0.0
2017-Dec-13 10:00N 28°28' W 016°15'0 0.0
2017-Dec-13 09:30N 28°28' W 016°15'0 0.0
2017-Dec-13 09:00N 28°28' W 016°15'0 0.0
2017-Dec-13 08:31N 28°28' W 016°15'0 0.0
2017-Dec-12 17:58N 28°28' W 016°15'0 0.0
2017-Dec-12 17:30N 28°28' W 016°15'0 0.0
2017-Dec-12 17:00N 28°28' W 016°15'0 0.0
2017-Dec-12 16:30N 28°28' W 016°15'0 0.0
2017-Dec-12 16:00N 28°28' W 016°15'0 0.0
2017-Dec-12 13:34N 28°28' W 016°15'0 0.0
2017-Dec-12 13:30N 28°28' W 016°15'0 0.0
2017-Dec-12 13:00N 28°28' W 016°15'0 0.0
2017-Dec-12 12:30N 28°28' W 016°15'0 0.0
2017-Dec-12 12:00N 28°28' W 016°15'0 0.0
2017-Dec-12 11:30N 28°28' W 016°15'0 0.0
2017-Dec-12 11:00N 28°28' W 016°15'0 0.0
2017-Dec-12 10:30N 28°28' W 016°15'0 0.0
2017-Dec-12 10:00N 28°28' W 016°15'0 0.0
2017-Dec-12 09:30N 28°28' W 016°15'0 0.0
2017-Dec-12 09:00N 28°28' W 016°15'0 0.0
2017-Dec-12 08:30N 28°28' W 016°15'0 0.0
2017-Dec-11 20:32N 28°28' W 016°15'0 0.0
2017-Dec-11 20:30N 28°28' W 016°15'511.0
2017-Dec-11 20:00N 28°23' W 016°13'1 1.8
2017-Dec-11 19:30N 28°22' W 016°13'0 0.9
2017-Dec-11 19:01N 28°22' W 016°14'4 7.3
2017-Dec-11 18:30N 28°26' W 016°14'2 4.4
2017-Dec-11 18:00N 28°28' W 016°15'4 7.1
2017-Dec-11 17:30N 28°24' W 016°14'4 7.1
2017-Dec-11 17:00N 28°28' W 016°15'0 0.0
2017-Dec-11 16:30N 28°28' W 016°15'0 0.0
2017-Dec-11 16:00N 28°28' W 016°15'0 0.0
2017-Dec-11 15:30N 28°28' W 016°15'0 0.0
2017-Dec-11 12:46N 28°28' W 016°15'0 0.0
2017-Dec-11 12:30N 28°28' W 016°15'0 0.0
2017-Dec-11 12:00N 28°28' W 016°15'0 0.0
2017-Dec-11 11:31N 28°28' W 016°15'0 0.0
2017-Dec-11 11:01N 28°28' W 016°15'0 0.0
2017-Dec-11 10:31N 28°28' W 016°15'0 0.0
2017-Dec-11 10:01N 28°28' W 016°15'0 0.0
2017-Dec-11 09:31N 28°28' W 016°15'0 0.0
2017-Dec-11 09:01N 28°28' W 016°15'0 0.0
2017-Dec-11 08:31N 28°28' W 016°15'0 0.0
2017-Dec-11 08:01N 28°28' W 016°15'0 0.0
2017-Dec-10 13:07N 28°28' W 016°15'0 0.0
2017-Dec-10 13:00N 28°28' W 016°15'0 0.0
2017-Dec-10 12:31N 28°28' W 016°15'0 0.0
2017-Dec-09 13:46N 28°28' W 016°15'0 0.0
2017-Dec-09 13:31N 28°28' W 016°15'0 0.0
2017-Dec-09 13:01N 28°28' W 016°15'0 0.0
2017-Dec-09 12:31N 28°28' W 016°15'0 0.0
2017-Dec-09 12:01N 28°28' W 016°15'0 0.0
2017-Dec-08 13:29N 28°28' W 016°15'0 0.0
2017-Dec-08 13:00N 28°28' W 016°15'0 0.0
2017-Dec-08 12:30N 28°28' W 016°15'0 0.0
2017-Dec-08 12:00N 28°28' W 016°15'0 0.0
2017-Dec-07 17:34N 28°28' W 016°15'0 0.0
2017-Dec-07 17:31N 28°28' W 016°15'0 0.0
2017-Dec-07 17:01N 28°28' W 016°15'0 0.0
2017-Dec-07 16:31N 28°28' W 016°15'0 0.0
2017-Dec-07 16:00N 28°28' W 016°15'0 0.0
2017-Dec-07 15:31N 28°28' W 016°15'  

Dump ship's entire track history